Time;durP1;ratioP1;P1;durP2;ratioP2;P2;SDS_P1;SDS_P2;PMS_P1;PMS_P2;Temp;Humidity;BMP_temperature;BMP_pressure;BME280_temperature;BME280_humidity;BME280_pressure;Samples;Min_cycle;Max_cycle;Signal;HPM_P1;HPM_P2
2023/10/30 00:01:11;;;;;;;16.30;9.60;;;;;;;;;;5002628;28;20033;-82
2023/10/30 00:03:37;;;;;;;18.95;9.80;;;;;;;;;;5005893;28;20042;-82
2023/10/30 00:06:02;;;;;;;22.45;11.98;;;;;;;;;;4994770;28;20134;-82
2023/10/30 00:08:28;;;;;;;21.50;11.02;;;;;;;;;;4986592;28;20420;-82
2023/10/30 00:10:53;;;;;;;14.57;8.10;;;;;;;;;;4995822;28;20037;-83
2023/10/30 00:13:18;;;;;;;14.38;6.78;;;;;;;;;;5006429;28;20073;-83
2023/10/30 00:15:44;;;;;;;11.60;6.68;;;;;;;;;;5000622;28;20022;-83
2023/10/30 00:18:09;;;;;;;11.80;7.10;;;;;;;;;;4986655;28;20034;-82
2023/10/30 00:20:35;;;;;;;12.43;6.63;;;;;;;;;;4986535;28;20026;-83
2023/10/30 00:23:00;;;;;;;9.88;6.43;;;;;;;;;;4986888;28;20025;-83
2023/10/30 00:25:26;;;;;;;10.73;5.00;;;;;;;;;;4970811;28;20483;-83
2023/10/30 00:27:52;;;;;;;9.38;4.60;;;;;;;;;;4986200;28;20073;-83
2023/10/30 00:30:18;;;;;;;8.32;4.32;;;;;;;;;;4991244;28;20045;-82
2023/10/30 00:32:43;;;;;;;10.02;4.75;;;;;;;;;;5025556;28;20026;-84
2023/10/30 00:35:08;;;;;;;7.47;4.20;;;;;;;;;;4994337;28;20021;-83
2023/10/30 00:37:34;;;;;;;9.93;4.70;;;;;;;;;;4999116;28;20025;-84
2023/10/30 00:40:00;;;;;;;10.73;5.90;;;;;;;;;;5009659;28;20041;-83
2023/10/30 00:42:27;;;;;;;10.73;5.30;;;;;;;;;;5017941;28;20457;-83
2023/10/30 00:44:54;;;;;;;10.30;5.68;;;;;;;;;;5012129;28;20031;-83
2023/10/30 00:47:19;;;;;;;11.55;6.07;;;;;;;;;;5023369;28;20454;-83
2023/10/30 00:49:45;;;;;;;11.93;6.68;;;;;;;;;;5007391;28;20109;-83
2023/10/30 00:52:10;;;;;;;11.13;7.13;;;;;;;;;;5010010;28;20506;-83
2023/10/30 00:54:35;;;;;;;12.07;7.10;;;;;;;;;;5028602;28;20014;-83
2023/10/30 00:57:01;;;;;;;15.57;7.25;;;;;;;;;;5028655;28;20040;-83
2023/10/30 00:59:26;;;;;;;14.00;6.10;;;;;;;;;;4991629;28;20029;-83
2023/10/30 01:01:52;;;;;;;11.30;5.65;;;;;;;;;;5009033;28;20135;-83
2023/10/30 01:04:18;;;;;;;11.45;6.05;;;;;;;;;;5022754;28;20383;-82
2023/10/30 01:06:44;;;;;;;10.02;5.50;;;;;;;;;;5012277;28;20033;-82
2023/10/30 01:09:09;;;;;;;8.95;5.63;;;;;;;;;;5001646;28;20156;-82
2023/10/30 01:11:34;;;;;;;10.38;5.68;;;;;;;;;;5011498;28;20088;-82
2023/10/30 01:14:00;;;;;;;11.20;6.32;;;;;;;;;;5021731;28;20419;-82
2023/10/30 01:16:26;;;;;;;10.77;5.97;;;;;;;;;;5014687;28;20549;-82
2023/10/30 01:18:51;;;;;;;10.85;6.32;;;;;;;;;;5008112;28;20041;-82
2023/10/30 01:21:20;;;;;;;10.98;5.90;;;;;;;;;;5012614;28;20032;-82
2023/10/30 01:23:45;;;;;;;9.43;5.65;;;;;;;;;;4997687;28;20100;-83
2023/10/30 01:26:10;;;;;;;10.65;5.85;;;;;;;;;;5031865;28;20128;-82
2023/10/30 01:28:35;;;;;;;12.60;6.57;;;;;;;;;;5031930;28;20081;-82
2023/10/30 01:31:01;;;;;;;10.15;5.50;;;;;;;;;;4995026;28;20057;-83
2023/10/30 01:33:26;;;;;;;14.27;5.78;;;;;;;;;;5012064;28;20491;-83
2023/10/30 01:35:52;;;;;;;10.60;6.35;;;;;;;;;;5026490;28;20022;-83
2023/10/30 01:38:17;;;;;;;13.07;5.30;;;;;;;;;;5014111;28;20229;-82
2023/10/30 01:40:49;;;;;;;9.38;5.47;;;;;;;;;;5019312;28;20022;-83
2023/10/30 01:43:15;;;;;;;9.70;5.55;;;;;;;;;;4994085;28;20025;-83
2023/10/30 01:45:40;;;;;;;10.45;6.07;;;;;;;;;;5011869;28;20476;-83
2023/10/30 01:48:06;;;;;;;9.73;5.05;;;;;;;;;;5012079;28;20025;-83
2023/10/30 01:50:32;;;;;;;11.98;4.75;;;;;;;;;;5017167;28;20021;-83
2023/10/30 01:52:58;;;;;;;10.05;4.63;;;;;;;;;;5014164;28;20022;-83
2023/10/30 01:55:23;;;;;;;10.68;4.97;;;;;;;;;;5030939;28;20020;-82
2023/10/30 01:57:50;;;;;;;9.30;5.05;;;;;;;;;;5013867;28;20021;-82
2023/10/30 02:00:15;;;;;;;9.15;4.70;;;;;;;;;;5013517;28;20029;-82
2023/10/30 02:02:41;;;;;;;7.53;4.95;;;;;;;;;;5013088;28;20030;-83
2023/10/30 02:05:08;;;;;;;10.80;4.82;;;;;;;;;;5011462;28;20039;-83
2023/10/30 02:07:34;;;;;;;9.00;4.80;;;;;;;;;;5013034;28;20026;-82
2023/10/30 02:10:00;;;;;;;9.13;4.30;;;;;;;;;;5011378;28;20032;-83
2023/10/30 02:12:25;;;;;;;8.00;4.75;;;;;;;;;;5023878;28;20021;-83
2023/10/30 02:14:50;;;;;;;7.60;4.88;;;;;;;;;;5031111;28;20017;-83
2023/10/30 02:17:16;;;;;;;7.13;4.55;;;;;;;;;;5003167;28;20018;-83
2023/10/30 02:19:41;;;;;;;8.25;4.68;;;;;;;;;;4993529;28;20017;-82
2023/10/30 02:22:07;;;;;;;8.90;4.00;;;;;;;;;;5017956;28;20021;-82
2023/10/30 02:24:32;;;;;;;8.52;4.25;;;;;;;;;;5029878;28;20045;-82
2023/10/30 02:26:57;;;;;;;8.18;5.03;;;;;;;;;;5026940;28;20776;-82
2023/10/30 02:29:23;;;;;;;9.68;4.50;;;;;;;;;;4993568;28;20022;-82
2023/10/30 02:31:50;;;;;;;8.77;4.03;;;;;;;;;;5011066;28;20018;-82
2023/10/30 02:34:15;;;;;;;9.05;4.22;;;;;;;;;;5029585;28;20025;-82
2023/10/30 02:36:41;;;;;;;6.80;4.20;;;;;;;;;;5030904;28;20608;-82
2023/10/30 02:39:07;;;;;;;11.20;5.10;;;;;;;;;;5012239;28;20025;-83
2023/10/30 02:41:32;;;;;;;9.48;4.78;;;;;;;;;;4992977;28;20046;-82
2023/10/30 02:43:58;;;;;;;8.63;4.57;;;;;;;;;;5023018;28;20134;-82
2023/10/30 02:46:24;;;;;;;9.68;4.53;;;;;;;;;;5030523;28;20021;-82
2023/10/30 02:48:50;;;;;;;9.98;4.63;;;;;;;;;;5002368;28;20025;-82
2023/10/30 02:51:15;;;;;;;10.45;4.88;;;;;;;;;;5008881;28;20028;-82
2023/10/30 02:53:41;;;;;;;7.78;4.35;;;;;;;;;;5017275;28;20075;-82
2023/10/30 02:56:06;;;;;;;9.38;4.45;;;;;;;;;;5030036;28;20458;-82
2023/10/30 02:58:31;;;;;;;8.80;4.78;;;;;;;;;;5026619;28;20101;-82
2023/10/30 03:00:57;;;;;;;13.90;7.50;;;;;;;;;;5008695;28;20024;-83
2023/10/30 03:03:22;;;;;;;22.40;11.25;;;;;;;;;;5009293;28;20784;-83
2023/10/30 03:05:48;;;;;;;21.13;10.85;;;;;;;;;;5028944;28;20025;-82
2023/10/30 03:08:13;;;;;;;21.52;10.75;;;;;;;;;;5029980;28;20049;-83
2023/10/30 03:10:39;;;;;;;17.13;8.80;;;;;;;;;;5012877;28;20092;-82
2023/10/30 03:13:04;;;;;;;19.50;9.73;;;;;;;;;;5011545;28;20018;-82
2023/10/30 03:15:31;;;;;;;21.52;9.45;;;;;;;;;;5023610;28;20021;-82
2023/10/30 03:17:56;;;;;;;16.95;8.48;;;;;;;;;;5028660;28;20017;-82
2023/10/30 03:20:21;;;;;;;18.20;8.43;;;;;;;;;;5018479;28;20028;-82
2023/10/30 03:22:46;;;;;;;18.13;9.15;;;;;;;;;;5008270;28;20071;-83
2023/10/30 03:25:12;;;;;;;18.58;8.52;;;;;;;;;;5016433;28;20048;-82
2023/10/30 03:27:37;;;;;;;12.45;6.28;;;;;;;;;;5027970;28;20045;-84
2023/10/30 03:30:03;;;;;;;10.90;6.63;;;;;;;;;;5025671;28;20076;-84
2023/10/30 03:32:29;;;;;;;16.52;7.97;;;;;;;;;;5008726;28;20479;-84
2023/10/30 03:34:54;;;;;;;27.55;13.90;;;;;;;;;;5008404;28;20072;-82
2023/10/30 03:37:19;;;;;;;23.73;11.77;;;;;;;;;;5008724;28;20025;-82
2023/10/30 03:39:45;;;;;;;12.88;7.90;;;;;;;;;;5010028;28;20014;-82
2023/10/30 03:42:10;;;;;;;9.45;5.20;;;;;;;;;;5026069;28;20025;-83
2023/10/30 03:44:36;;;;;;;8.15;5.00;;;;;;;;;;5011989;28;20545;-83
2023/10/30 03:47:01;;;;;;;8.43;4.43;;;;;;;;;;5016562;28;20057;-82
2023/10/30 03:49:26;;;;;;;11.40;4.72;;;;;;;;;;5009692;28;20060;-82
2023/10/30 03:51:52;;;;;;;7.55;4.85;;;;;;;;;;5001858;28;20471;-83
2023/10/30 03:54:17;;;;;;;9.25;4.70;;;;;;;;;;5011265;28;20029;-82
2023/10/30 03:56:43;;;;;;;7.68;4.75;;;;;;;;;;5028058;28;20108;-83
2023/10/30 03:59:09;;;;;;;8.82;4.50;;;;;;;;;;5010005;28;20041;-82
2023/10/30 04:01:35;;;;;;;6.43;4.30;;;;;;;;;;5011022;28;20105;-82
2023/10/30 04:04:01;;;;;;;8.63;5.00;;;;;;;;;;5029271;28;20056;-82
2023/10/30 04:06:26;;;;;;;9.15;4.45;;;;;;;;;;5008451;28;20026;-83
2023/10/30 04:08:51;;;;;;;5.65;4.30;;;;;;;;;;5028102;28;20029;-83
2023/10/30 04:11:17;;;;;;;8.77;4.85;;;;;;;;;;5010617;28;20401;-83
2023/10/30 04:13:43;;;;;;;7.57;4.97;;;;;;;;;;5012730;28;20018;-83
2023/10/30 04:16:12;;;;;;;11.98;5.40;;;;;;;;;;5008903;28;20026;-83
2023/10/30 04:18:38;;;;;;;10.73;4.95;;;;;;;;;;5020468;28;20195;-83
2023/10/30 04:21:04;;;;;;;12.15;6.70;;;;;;;;;;5025916;28;20100;-83
2023/10/30 04:23:29;;;;;;;13.20;5.88;;;;;;;;;;5021127;28;20498;-83
2023/10/30 04:25:55;;;;;;;12.73;6.95;;;;;;;;;;5011486;28;20021;-83
2023/10/30 04:28:20;;;;;;;9.50;5.65;;;;;;;;;;5009234;28;20052;-83
2023/10/30 04:30:46;;;;;;;8.65;5.53;;;;;;;;;;5007545;28;20032;-83
2023/10/30 04:33:11;;;;;;;9.93;5.47;;;;;;;;;;5012015;28;20022;-83
2023/10/30 04:35:36;;;;;;;9.68;5.38;;;;;;;;;;5010978;28;20024;-83
2023/10/30 04:38:01;;;;;;;7.68;4.80;;;;;;;;;;5011374;28;20020;-83
2023/10/30 04:40:27;;;;;;;9.50;5.22;;;;;;;;;;5007925;28;20080;-83
2023/10/30 04:42:52;;;;;;;10.95;5.43;;;;;;;;;;5007520;28;20044;-83
2023/10/30 04:45:18;;;;;;;7.57;5.13;;;;;;;;;;5024668;28;20025;-83
2023/10/30 04:47:43;;;;;;;8.95;5.18;;;;;;;;;;5010861;28;20073;-83
2023/10/30 04:50:08;;;;;;;12.15;4.90;;;;;;;;;;5015388;28;20057;-83
2023/10/30 04:52:34;;;;;;;9.65;4.78;;;;;;;;;;5010224;28;20380;-83
2023/10/30 04:54:59;;;;;;;9.23;4.30;;;;;;;;;;5018592;28;20638;-83
2023/10/30 04:57:24;;;;;;;19.55;7.15;;;;;;;;;;5018051;28;20025;-83
2023/10/30 04:59:50;;;;;;;30.63;11.93;;;;;;;;;;5017894;28;20138;-83
2023/10/30 05:02:16;;;;;;;33.97;12.55;;;;;;;;;;5009338;28;20029;-83
2023/10/30 05:04:41;;;;;;;55.47;18.83;;;;;;;;;;5016462;28;20018;-83
2023/10/30 05:07:06;;;;;;;37.35;15.57;;;;;;;;;;5009974;28;20109;-83
2023/10/30 05:09:32;;;;;;;31.73;13.02;;;;;;;;;;5019769;28;20074;-83
2023/10/30 05:11:58;;;;;;;24.85;12.70;;;;;;;;;;5017140;28;20018;-83
2023/10/30 05:14:23;;;;;;;33.42;12.93;;;;;;;;;;5017754;28;20021;-82
2023/10/30 05:16:49;;;;;;;31.20;15.60;;;;;;;;;;5005425;28;20022;-83
2023/10/30 05:19:14;;;;;;;27.00;12.25;;;;;;;;;;5027734;28;20106;-83
2023/10/30 05:21:39;;;;;;;19.88;10.27;;;;;;;;;;5021239;28;20018;-83
2023/10/30 05:24:05;;;;;;;20.42;10.13;;;;;;;;;;5020252;28;20022;-83
2023/10/30 05:26:31;;;;;;;16.70;9.60;;;;;;;;;;5019272;28;20077;-82
2023/10/30 05:28:56;;;;;;;15.73;9.38;;;;;;;;;;5018070;28;20042;-83
2023/10/30 05:31:22;;;;;;;26.20;12.68;;;;;;;;;;5017948;28;20681;-82
2023/10/30 05:33:47;;;;;;;23.75;12.68;;;;;;;;;;5010792;28;20010;-83
2023/10/30 05:36:13;;;;;;;27.42;12.57;;;;;;;;;;5001636;28;20075;-84
2023/10/30 05:38:38;;;;;;;24.40;12.73;;;;;;;;;;5008457;28;20029;-83
2023/10/30 05:41:03;;;;;;;20.77;11.70;;;;;;;;;;5007945;28;20033;-82
2023/10/30 05:43:29;;;;;;;21.58;11.25;;;;;;;;;;5009940;28;20068;-81
2023/10/30 05:45:54;;;;;;;21.73;11.70;;;;;;;;;;5029043;28;20032;-84
2023/10/30 05:48:20;;;;;;;21.63;11.80;;;;;;;;;;5013379;28;20448;-84
2023/10/30 05:50:45;;;;;;;26.65;12.52;;;;;;;;;;5009095;28;20049;-83
2023/10/30 05:53:12;;;;;;;20.38;11.05;;;;;;;;;;5006184;28;20471;-82
2023/10/30 05:55:37;;;;;;;21.27;11.30;;;;;;;;;;5034856;28;20029;-81
2023/10/30 05:58:02;;;;;;;21.52;11.23;;;;;;;;;;5027910;28;20021;-81
2023/10/30 06:00:29;;;;;;;24.90;11.63;;;;;;;;;;5019381;28;20033;-88
2023/10/30 06:02:55;;;;;;;23.40;11.75;;;;;;;;;;5010288;28;20021;-82
2023/10/30 06:05:21;;;;;;;50.08;20.38;;;;;;;;;;5011575;28;20017;-82
2023/10/30 06:07:47;;;;;;;44.20;18.42;;;;;;;;;;5009271;28;20654;-83
2023/10/30 06:10:13;;;;;;;32.65;14.85;;;;;;;;;;5024876;28;20095;-83
2023/10/30 06:12:38;;;;;;;42.10;18.77;;;;;;;;;;5011735;28;20033;-83
2023/10/30 06:15:05;;;;;;;45.20;19.52;;;;;;;;;;5026851;28;20040;-83
2023/10/30 06:17:30;;;;;;;41.55;18.40;;;;;;;;;;5029009;28;20039;-83
2023/10/30 06:19:55;;;;;;;33.40;16.50;;;;;;;;;;5028415;28;20372;-83
2023/10/30 06:22:21;;;;;;;32.92;14.75;;;;;;;;;;5010496;28;20541;-82
2023/10/30 06:24:47;;;;;;;31.88;15.38;;;;;;;;;;5014552;28;20029;-82
2023/10/30 06:27:12;;;;;;;37.60;18.48;;;;;;;;;;5007165;28;20512;-84
2023/10/30 06:29:38;;;;;;;52.20;23.20;;;;;;;;;;4993796;28;20761;-82
2023/10/30 06:32:03;;;;;;;66.22;26.30;;;;;;;;;;4990967;28;20499;-84
2023/10/30 06:34:28;;;;;;;65.68;27.33;;;;;;;;;;5003761;28;20535;-82
2023/10/30 06:36:54;;;;;;;74.53;29.45;;;;;;;;;;5028308;28;20450;-81
2023/10/30 06:39:20;;;;;;;82.75;31.45;;;;;;;;;;5027661;28;20029;-84
2023/10/30 06:41:48;;;;;;;68.90;29.02;;;;;;;;;;5010459;28;20022;-81
2023/10/30 06:44:14;;;;;;;69.22;28.63;;;;;;;;;;5017616;28;20026;-84
2023/10/30 06:46:39;;;;;;;68.32;27.25;;;;;;;;;;5032977;28;20567;-88
2023/10/30 06:49:04;;;;;;;58.80;27.88;;;;;;;;;;5016003;28;20026;-83
2023/10/30 06:51:29;;;;;;;61.45;29.45;;;;;;;;;;5008372;28;20124;-83
2023/10/30 06:53:55;;;;;;;42.25;20.88;;;;;;;;;;5014849;28;20108;-86
2023/10/30 06:56:20;;;;;;;40.03;19.67;;;;;;;;;;5036340;28;20100;-86
2023/10/30 06:58:47;;;;;;;31.77;15.13;;;;;;;;;;5037305;28;20099;-85
2023/10/30 07:01:12;;;;;;;29.50;15.65;;;;;;;;;;5021977;28;20018;-84
2023/10/30 07:03:38;;;;;;;28.77;15.52;;;;;;;;;;5009307;28;20033;-84
2023/10/30 07:06:03;;;;;;;24.70;14.55;;;;;;;;;;5018437;28;20018;-88
2023/10/30 07:08:29;;;;;;;24.50;14.50;;;;;;;;;;5023244;28;20025;-86
2023/10/30 07:10:55;;;;;;;26.90;13.82;;;;;;;;;;5029160;28;20084;-83
2023/10/30 07:13:21;;;;;;;28.42;13.88;;;;;;;;;;5027330;28;20026;-84
2023/10/30 07:15:46;;;;;;;27.77;15.00;;;;;;;;;;4992435;28;20116;-83
2023/10/30 07:18:11;;;;;;;23.15;13.43;;;;;;;;;;5009189;28;20071;-84
2023/10/30 07:20:37;;;;;;;25.88;12.73;;;;;;;;;;5014904;28;20033;-83
2023/10/30 07:23:02;;;;;;;28.65;15.65;;;;;;;;;;5013976;28;20021;-83
2023/10/30 07:25:27;;;;;;;31.10;15.65;;;;;;;;;;5008214;28;20480;-83
2023/10/30 07:27:53;;;;;;;29.73;15.90;;;;;;;;;;5018168;28;20114;-83
2023/10/30 07:30:18;;;;;;;35.10;19.90;;;;;;;;;;5027811;28;20108;-83
2023/10/30 07:32:44;;;;;;;32.55;17.67;;;;;;;;;;5022065;28;20029;-83
2023/10/30 07:35:10;;;;;;;35.35;18.15;;;;;;;;;;5011544;28;20022;-84
2023/10/30 07:37:35;;;;;;;27.02;15.70;;;;;;;;;;5027223;28;20032;-83
2023/10/30 07:40:01;;;;;;;28.08;15.38;;;;;;;;;;5027877;28;20027;-83
2023/10/30 07:42:27;;;;;;;26.80;13.60;;;;;;;;;;5025481;28;20052;-83
2023/10/30 07:44:52;;;;;;;24.55;12.75;;;;;;;;;;5018240;28;20052;-82
2023/10/30 07:47:18;;;;;;;25.95;12.82;;;;;;;;;;5007960;28;20037;-83
2023/10/30 07:49:44;;;;;;;20.17;11.85;;;;;;;;;;5021496;28;20061;-83
2023/10/30 07:52:09;;;;;;;18.55;10.50;;;;;;;;;;5006029;28;20021;-84
2023/10/30 07:54:34;;;;;;;15.23;9.68;;;;;;;;;;5013895;28;20068;-84
2023/10/30 07:56:59;;;;;;;19.13;8.18;;;;;;;;;;5022073;28;20032;-84
2023/10/30 07:59:25;;;;;;;11.80;8.32;;;;;;;;;;5022985;28;20479;-84
2023/10/30 08:01:51;;;;;;;10.27;7.53;;;;;;;;;;5019199;28;20399;-84
2023/10/30 08:04:16;;;;;;;12.38;7.60;;;;;;;;;;5002180;28;20403;-84
2023/10/30 08:06:41;;;;;;;8.35;6.00;;;;;;;;;;5018749;28;20493;-85
2023/10/30 08:09:12;;;;;;;7.97;5.60;;;;;;;;;;5028826;28;20013;-91
2023/10/30 08:11:37;;;;;;;9.60;5.85;;;;;;;;;;5032593;28;20077;-86
2023/10/30 08:14:03;;;;;;;8.57;5.60;;;;;;;;;;5027292;28;20013;-85
2023/10/30 08:16:28;;;;;;;10.13;6.40;;;;;;;;;;5013649;28;20044;-85
2023/10/30 08:18:53;;;;;;;8.27;5.57;;;;;;;;;;5032278;28;20017;-85
2023/10/30 08:21:19;;;;;;;13.27;5.82;;;;;;;;;;5013136;28;20021;-85
2023/10/30 08:23:44;;;;;;;9.95;5.97;;;;;;;;;;5025267;28;20014;-85
2023/10/30 08:26:09;;;;;;;14.07;8.15;;;;;;;;;;5025518;28;20064;-86
2023/10/30 08:28:35;;;;;;;11.68;7.20;;;;;;;;;;5025125;28;20052;-86
2023/10/30 08:31:01;;;;;;;12.52;7.07;;;;;;;;;;5027828;28;20357;-84
2023/10/30 08:33:26;;;;;;;9.55;6.30;;;;;;;;;;5031492;28;20020;-85
2023/10/30 08:35:52;;;;;;;14.70;8.90;;;;;;;;;;5012095;28;20060;-86
2023/10/30 08:38:18;;;;;;;8.95;6.00;;;;;;;;;;5016931;28;20026;-84
2023/10/30 08:40:43;;;;;;;15.20;8.70;;;;;;;;;;4997836;28;20018;-85
2023/10/30 08:43:08;;;;;;;13.88;8.60;;;;;;;;;;5026466;28;20025;-84
2023/10/30 08:45:34;;;;;;;12.30;7.97;;;;;;;;;;5020372;28;20025;-85
2023/10/30 08:48:01;;;;;;;14.40;8.50;;;;;;;;;;4998060;28;20048;-85
2023/10/30 08:50:26;;;;;;;14.25;11.20;;;;;;;;;;5029112;28;20018;-86
2023/10/30 08:52:52;;;;;;;9.70;7.53;;;;;;;;;;5027056;28;20060;-85
2023/10/30 08:55:17;;;;;;;7.57;4.50;;;;;;;;;;5010301;28;20030;-88
2023/10/30 08:57:43;;;;;;;8.50;5.00;;;;;;;;;;5011914;28;20396;-85
2023/10/30 09:00:09;;;;;;;7.90;4.57;;;;;;;;;;5015090;28;20427;-85
2023/10/30 09:02:34;;;;;;;7.40;4.20;;;;;;;;;;5025180;28;20032;-86
2023/10/30 09:04:59;;;;;;;5.93;4.13;;;;;;;;;;5011363;28;20029;-83
2023/10/30 09:07:25;;;;;;;8.93;4.15;;;;;;;;;;5010901;28;20095;-82
2023/10/30 09:09:50;;;;;;;8.65;5.32;;;;;;;;;;5028242;28;20021;-83
2023/10/30 09:12:17;;;;;;;9.27;4.40;;;;;;;;;;5025833;28;20013;-83
2023/10/30 09:14:43;;;;;;;7.38;4.53;;;;;;;;;;5029163;28;20006;-83
2023/10/30 09:17:09;;;;;;;7.20;4.65;;;;;;;;;;5027447;28;20017;-86
2023/10/30 09:19:35;;;;;;;6.60;3.95;;;;;;;;;;5028702;28;20714;-83
2023/10/30 09:22:00;;;;;;;7.10;3.60;;;;;;;;;;5022878;28;20105;-83
2023/10/30 09:24:26;;;;;;;7.72;4.70;;;;;;;;;;5026691;28;20025;-88
2023/10/30 09:26:52;;;;;;;7.50;4.40;;;;;;;;;;5035743;28;20133;-87
2023/10/30 09:29:17;;;;;;;7.25;4.07;;;;;;;;;;5025193;28;20097;-83
2023/10/30 09:31:44;;;;;;;7.32;4.00;;;;;;;;;;5010663;28;20033;-84
2023/10/30 09:34:09;;;;;;;7.45;4.72;;;;;;;;;;5031405;28;20029;-84
2023/10/30 09:36:34;;;;;;;8.35;4.32;;;;;;;;;;5030401;28;20024;-84
2023/10/30 09:39:00;;;;;;;5.47;3.55;;;;;;;;;;5030653;28;20071;-84
2023/10/30 09:41:26;;;;;;;4.45;2.83;;;;;;;;;;5013593;28;20045;-84
2023/10/30 09:43:52;;;;;;;5.13;3.03;;;;;;;;;;5023071;28;20093;-84
2023/10/30 09:46:19;;;;;;;6.57;2.88;;;;;;;;;;5004964;28;20022;-91
2023/10/30 09:48:44;;;;;;;6.25;3.25;;;;;;;;;;5014902;28;20112;-82
2023/10/30 09:51:11;;;;;;;6.18;2.55;;;;;;;;;;5031271;28;20061;-83
2023/10/30 09:53:37;;;;;;;5.30;2.55;;;;;;;;;;5030778;28;20021;-83
2023/10/30 09:56:03;;;;;;;4.47;2.45;;;;;;;;;;5012064;28;20014;-84
2023/10/30 09:58:29;;;;;;;4.88;2.35;;;;;;;;;;5012831;28;20101;-83
2023/10/30 10:00:54;;;;;;;4.43;2.72;;;;;;;;;;5029300;28;20056;-83
2023/10/30 10:03:20;;;;;;;6.40;2.30;;;;;;;;;;5009956;28;20026;-84
2023/10/30 10:05:56;;;;;;;7.80;2.70;;;;;;;;;;5009848;28;20021;-84
2023/10/30 10:08:21;;;;;;;5.05;2.50;;;;;;;;;;5010746;28;20022;-83
2023/10/30 10:10:56;;;;;;;4.00;2.53;;;;;;;;;;5009373;28;20026;-83
2023/10/30 10:13:23;;;;;;;7.82;2.50;;;;;;;;;;5011312;28;20100;-84
2023/10/30 10:15:49;;;;;;;5.47;2.97;;;;;;;;;;5029408;28;20040;-83
2023/10/30 10:18:25;;;;;;;7.43;2.72;;;;;;;;;;5025462;28;20029;-83
2023/10/30 10:20:54;;;;;;;6.70;2.28;;;;;;;;;;5013778;28;20027;-83
2023/10/30 10:23:19;;;;;;;4.03;2.70;;;;;;;;;;5013344;28;20018;-83
2023/10/30 10:25:55;;;;;;;7.28;2.30;;;;;;;;;;5029185;28;20475;-84
2023/10/30 10:28:21;;;;;;;4.38;2.10;;;;;;;;;;5011322;28;20128;-83
2023/10/30 10:30:47;;;;;;;4.47;2.30;;;;;;;;;;5030739;28;20032;-84
2023/10/30 10:33:12;;;;;;;4.03;1.80;;;;;;;;;;5028408;28;20478;-83
2023/10/30 10:35:40;;;;;;;4.93;2.40;;;;;;;;;;5030174;28;20104;-84
2023/10/30 10:38:09;;;;;;;6.28;3.17;;;;;;;;;;5012790;28;20016;-83
2023/10/30 10:40:35;;;;;;;4.78;2.47;;;;;;;;;;5012458;28;20047;-83
2023/10/30 10:43:02;;;;;;;4.63;2.60;;;;;;;;;;5034450;28;20085;-87
2023/10/30 10:45:28;;;;;;;3.55;2.00;;;;;;;;;;5033614;28;20021;-83
2023/10/30 10:47:53;;;;;;;4.32;2.50;;;;;;;;;;5027138;28;20091;-84
2023/10/30 10:50:20;;;;;;;3.60;2.20;;;;;;;;;;5013475;28;20028;-84
2023/10/30 10:52:46;;;;;;;6.03;3.47;;;;;;;;;;5007872;28;20112;-84
2023/10/30 10:55:13;;;;;;;6.32;4.63;;;;;;;;;;5012659;28;20423;-84
2023/10/30 10:57:49;;;;;;;6.78;4.28;;;;;;;;;;5020735;28;20145;-84
2023/10/30 11:00:15;;;;;;;5.80;2.70;;;;;;;;;;4992618;28;20025;-83
2023/10/30 11:02:41;;;;;;;4.68;2.67;;;;;;;;;;5005673;28;20108;-84
2023/10/30 11:05:07;;;;;;;4.75;2.30;;;;;;;;;;5019334;28;20025;-84
2023/10/30 11:07:49;;;;;;;5.05;1.73;;;;;;;;;;5014704;28;20693;-84
2023/10/30 11:10:23;;;;;;;5.22;2.10;;;;;;;;;;5021241;28;20030;-84
2023/10/30 11:12:57;;;;;;;3.70;1.70;;;;;;;;;;5021064;28;20060;-84
2023/10/30 11:15:30;;;;;;;5.82;1.90;;;;;;;;;;5019094;28;20016;-84
2023/10/30 11:18:15;;;;;;;21.30;17.95;;;;;;;;;;5002279;28;20025;-86
2023/10/30 11:20:41;;;;;;;2.65;1.80;;;;;;;;;;5023516;28;20048;-85
2023/10/30 11:23:06;;;;;;;5.20;2.00;;;;;;;;;;5022228;28;20499;-85
2023/10/30 11:25:44;;;;;;;5.30;1.63;;;;;;;;;;5021405;28;20024;-84
2023/10/30 11:28:10;;;;;;;7.00;2.13;;;;;;;;;;5003276;28;20042;-85
2023/10/30 11:30:42;;;;;;;7.28;1.67;;;;;;;;;;4992501;28;20559;-84
2023/10/30 11:33:20;;;;;;;2.95;1.67;;;;;;;;;;5025459;28;20017;-83
2023/10/30 11:35:50;;;;;;;3.92;1.65;;;;;;;;;;5033398;28;20056;-88
2023/10/30 11:38:18;;;;;;;6.68;2.10;;;;;;;;;;5017074;28;20017;-84
2023/10/30 11:40:59;;;;;;;4.80;1.75;;;;;;;;;;5009133;28;20037;-84
2023/10/30 11:43:28;;;;;;;5.35;2.20;;;;;;;;;;5002433;28;20028;-86
2023/10/30 11:46:00;;;;;;;5.22;2.08;;;;;;;;;;5014159;28;20040;-85
2023/10/30 11:48:26;;;;;;;2.60;1.60;;;;;;;;;;5014222;28;20109;-84
2023/10/30 11:50:53;;;;;;;4.82;1.80;;;;;;;;;;5022848;28;20153;-83
2023/10/30 11:53:19;;;;;;;5.70;1.98;;;;;;;;;;5033120;28;20535;-82
2023/10/30 11:55:47;;;;;;;4.22;2.08;;;;;;;;;;5029975;28;20053;-86
2023/10/30 11:58:12;;;;;;;;;;;;;;;;;;5019571;28;20080;-81
2023/10/30 12:00:39;;;;;;;4.63;2.10;;;;;;;;;;5007416;28;20279;-84
2023/10/30 12:03:05;;;;;;;3.53;1.70;;;;;;;;;;4996973;28;20030;-83
2023/10/30 12:05:30;;;;;;;10.70;3.30;;;;;;;;;;5025542;28;20025;-84
2023/10/30 12:07:56;;;;;;;2.75;1.73;;;;;;;;;;5014001;28;20029;-82
2023/10/30 12:10:23;;;;;;;4.13;1.80;;;;;;;;;;5031113;28;20026;-87
2023/10/30 12:12:48;;;;;;;5.30;2.10;;;;;;;;;;5030291;28;20029;-84
2023/10/30 12:15:14;;;;;;;2.97;2.22;;;;;;;;;;5028629;28;20018;-85
2023/10/30 12:17:40;;;;;;;13.02;3.30;;;;;;;;;;5026945;28;20037;-85
2023/10/30 12:20:06;;;;;;;8.07;2.70;;;;;;;;;;5015503;28;20105;-85
2023/10/30 12:22:35;;;;;;;4.10;1.92;;;;;;;;;;5025976;28;20032;-84
2023/10/30 12:25:00;;;;;;;2.92;1.90;;;;;;;;;;5028131;28;20029;-84
2023/10/30 12:27:26;;;;;;;9.05;2.17;;;;;;;;;;5020302;28;20048;-84
2023/10/30 12:29:55;;;;;;;7.20;1.80;;;;;;;;;;5010763;28;20109;-84
2023/10/30 12:32:20;;;;;;;3.10;1.60;;;;;;;;;;5028800;28;20025;-84
2023/10/30 12:34:46;;;;;;;7.38;2.03;;;;;;;;;;5011122;28;20365;-85
2023/10/30 12:37:18;;;;;;;5.13;1.65;;;;;;;;;;5027793;28;20021;-84
2023/10/30 12:40:03;;;;;;;7.72;2.50;;;;;;;;;;5024251;28;20021;-85
2023/10/30 12:42:29;;;;;;;3.85;1.60;;;;;;;;;;5004569;28;20040;-85
2023/10/30 12:44:54;;;;;;;3.83;1.50;;;;;;;;;;5020226;28;20013;-84
2023/10/30 12:47:20;;;;;;;10.32;2.90;;;;;;;;;;4999543;28;20053;-84
2023/10/30 12:49:45;;;;;;;4.03;1.90;;;;;;;;;;5019041;28;20021;-83
2023/10/30 12:52:11;;;;;;;4.43;1.70;;;;;;;;;;5017218;28;20025;-84
2023/10/30 12:54:36;;;;;;;7.60;2.47;;;;;;;;;;5018809;28;20014;-84
2023/10/30 12:57:02;;;;;;;5.88;2.60;;;;;;;;;;5008295;28;20101;-84
2023/10/30 12:59:27;;;;;;;5.90;2.08;;;;;;;;;;5025021;28;20021;-84
2023/10/30 13:01:53;;;;;;;7.10;1.80;;;;;;;;;;5004341;28;20021;-85
2023/10/30 13:04:20;;;;;;;10.90;2.47;;;;;;;;;;5023728;28;20029;-84
2023/10/30 13:06:45;;;;;;;5.80;2.23;;;;;;;;;;5011793;28;20032;-84
2023/10/30 13:09:10;;;;;;;10.25;2.90;;;;;;;;;;5020322;28;20034;-85
2023/10/30 13:11:36;;;;;;;6.28;2.25;;;;;;;;;;5011302;28;20377;-84
2023/10/30 13:14:01;;;;;;;5.82;2.35;;;;;;;;;;5021521;28;20021;-85
2023/10/30 13:16:27;;;;;;;4.07;2.60;;;;;;;;;;5032560;28;20071;-85
2023/10/30 13:18:53;;;;;;;5.57;2.28;;;;;;;;;;5027538;28;20374;-84
2023/10/30 13:21:18;;;;;;;10.45;4.95;;;;;;;;;;5012801;28;20112;-84
2023/10/30 13:23:43;;;;;;;9.27;3.55;;;;;;;;;;5011841;28;20117;-84
2023/10/30 13:26:09;;;;;;;4.13;2.22;;;;;;;;;;5007426;28;20022;-84
2023/10/30 13:28:34;;;;;;;3.60;1.85;;;;;;;;;;5017639;28;20053;-84
2023/10/30 13:31:00;;;;;;;4.50;2.40;;;;;;;;;;5031749;28;20638;-84
2023/10/30 13:33:26;;;;;;;3.75;2.45;;;;;;;;;;5014335;28;20017;-85
2023/10/30 13:35:51;;;;;;;5.10;3.25;;;;;;;;;;5030588;28;20036;-85
2023/10/30 13:38:17;;;;;;;4.90;3.05;;;;;;;;;;5031635;28;20013;-85
2023/10/30 13:40:43;;;;;;;4.05;3.00;;;;;;;;;;5019329;28;20062;-84
2023/10/30 13:43:09;;;;;;;5.95;3.58;;;;;;;;;;5012239;28;20030;-84
2023/10/30 13:45:37;;;;;;;5.45;3.20;;;;;;;;;;5013586;28;20029;-85
2023/10/30 13:48:03;;;;;;;5.25;3.33;;;;;;;;;;5030813;28;20018;-85
2023/10/30 13:50:28;;;;;;;7.55;3.90;;;;;;;;;;5015512;28;20037;-85
2023/10/30 13:52:53;;;;;;;7.43;3.30;;;;;;;;;;5032534;28;20013;-85
2023/10/30 13:55:20;;;;;;;7.22;3.72;;;;;;;;;;5007297;28;20040;-85
2023/10/30 13:57:45;;;;;;;6.97;3.88;;;;;;;;;;5004424;28;20018;-85
2023/10/30 14:00:11;;;;;;;13.60;5.75;;;;;;;;;;5011579;28;20037;-85
2023/10/30 14:02:36;;;;;;;15.57;6.35;;;;;;;;;;5031253;28;20029;-85
2023/10/30 14:05:03;;;;;;;10.90;4.63;;;;;;;;;;5032054;28;20033;-82
2023/10/30 14:07:28;;;;;;;9.13;3.70;;;;;;;;;;5023501;28;20080;-85
2023/10/30 14:09:53;;;;;;;4.25;2.92;;;;;;;;;;4994081;28;20033;-84
2023/10/30 14:12:19;;;;;;;7.95;3.95;;;;;;;;;;5007608;28;20075;-85
2023/10/30 14:14:50;;;;;;;11.82;4.50;;;;;;;;;;5035596;28;20064;-92
2023/10/30 14:17:16;;;;;;;11.32;6.45;;;;;;;;;;5035109;28;20095;-92
2023/10/30 14:19:41;;;;;;;8.55;3.60;;;;;;;;;;5036035;28;20475;-85
2023/10/30 14:22:06;;;;;;;10.45;4.75;;;;;;;;;;5034603;28;20017;-90
2023/10/30 14:24:32;;;;;;;26.48;7.32;;;;;;;;;;5020368;28;20021;-91
2023/10/30 14:26:57;;;;;;;23.90;8.70;;;;;;;;;;5023891;28;20049;-84